Atchison, KS (66002)

3:17 AM CDT on June 03, 2015 (GMT -0500)
Shannon Township | | Change Station
CLOSE
Current Station
Personal Weather Station
Location: Atchison, KS
Elevation: 942 ft
Nearby Weather Stations

Elev 942 ft 39.56 °N, 95.16 °W | Updated 6 minutes ago

Mostly Cloudy
Mostly Cloudy
65.5 °F
Feels Like 65.5 °F
N
2.0
Wind Variable Wind from SSW
Gusts 6.0 mph

Today
High -- | Low -- °F
--% Chance of Precip.
Yesterday
High -- | Low -- °F
Precip. -- in
5:54 AM 8:43 PM
Waxing Gibbous, 99% visible
Pressure 29.91 in
Visibility 10.0 miles
Clouds Clear
Dew Point 60 °F
Humidity 82%
Rainfall 0.00 in
Snow Depth Not available.
UV 0 out of 12
Pollen 6.90 out of 12
Air Quality Not available.
Flu Activity No Activity
METAR KSTJ 030753Z AUTO 15007KT 10SM CLR 18/15 A2993 RMK AO2 LTG DSNT ALQDS SLP129 T01780150

More Conditions Fewer Conditions

Pressure 29.91 in
Visibility 10.0 miles
Clouds Clear
Dew Point 60 °F
Humidity 82%
Rainfall 0.00 in
Snow Depth Not available.
UV 0 out of 12
Pollen 6.90 out of 12
Air Quality Not available.
Flu Activity No Activity
METAR KSTJ 030753Z AUTO 15007KT 10SM CLR 18/15 A2993 RMK AO2 LTG DSNT ALQDS SLP129 T01780150

More Conditions Fewer Conditions

10-Day Weather Forecast

×

Almanac

Astronomy

Jun. 03, 2015 Rise Set
Actual Time
Civil Twilight
Nautical Twilight
Astronomical Twilight
Moon
Length of Visible Light
Length of Day
Tomorrow will be .
, % of the Moon is Illuminated

Today's Extremes

State Highs State Lows

Community

WunderPhotos

Upload Photos

1,826,191 photos uploaded!

WunderBlogs® & News

Nearby

Air Quality

  Air Quality AQ Index Pollutant
Not available.

Snow Depth

Station Depth Elevation

Earthquake Activity

City Distance Mag. Time & Date
Minimum magnitude displayed is 2.5.

Coastal Water Temperatures

Place Temperature

Stations

Nearby Weather Stations

Station Location Temp. Windchill Dew Point Humidity Wind Precip. Elev Updated Type